createdAt,value
2018-11-26T00:01:22.969Z,74.30
2018-11-26T00:03:52.313Z,74.29
2018-11-26T00:06:21.594Z,74.30
2018-11-26T00:08:50.903Z,74.24
2018-11-26T00:11:39.476Z,74.32
2018-11-26T00:14:08.770Z,74.47
2018-11-26T00:16:38.065Z,74.47
2018-11-26T00:19:07.415Z,74.75
2018-11-26T00:21:36.734Z,74.83
2018-11-26T00:24:06.130Z,74.98
2018-11-26T00:26:35.418Z,75.08
2018-11-26T00:29:04.749Z,75.30
2018-11-26T00:31:34.062Z,75.39
2018-11-26T00:34:03.355Z,75.36
2018-11-26T00:36:32.656Z,75.17
2018-11-26T00:39:01.968Z,75.10
2018-11-26T00:41:31.280Z,75.02
2018-11-26T00:44:00.568Z,75.13
2018-11-26T00:46:29.862Z,75.24
2018-11-26T00:48:59.190Z,75.47
2018-11-26T00:51:28.520Z,75.62
2018-11-26T00:53:57.914Z,75.74
2018-11-26T00:56:27.203Z,75.80
2018-11-26T00:58:56.608Z,75.98
2018-11-26T01:01:25.889Z,76.16
2018-11-26T01:03:55.197Z,76.12
2018-11-26T01:06:24.491Z,75.95
2018-11-26T01:08:53.794Z,76.05
2018-11-26T01:11:23.070Z,76.20
2018-11-26T01:13:52.389Z,76.01
2018-11-26T01:16:21.706Z,75.93
2018-11-26T01:18:51.001Z,75.96
2018-11-26T01:21:20.319Z,75.76
2018-11-26T01:23:49.613Z,75.60
2018-11-26T01:26:18.911Z,75.53
2018-11-26T01:28:48.211Z,75.30
2018-11-26T01:31:17.589Z,75.19
2018-11-26T01:33:46.877Z,75.08
2018-11-26T01:36:16.290Z,75.10
2018-11-26T01:38:45.562Z,75.01
2018-11-26T01:41:14.868Z,74.77
2018-11-26T01:43:44.160Z,74.68
2018-11-26T01:46:13.474Z,74.68
2018-11-26T01:48:42.760Z,74.59
2018-11-26T01:51:12.053Z,74.81
2018-11-26T01:53:41.457Z,75.27
2018-11-26T01:56:10.755Z,75.55
2018-11-26T01:58:40.044Z,75.73
2018-11-26T02:01:09.355Z,75.87
2018-11-26T02:03:38.652Z,75.95
2018-11-26T02:06:07.953Z,75.89
2018-11-26T02:08:37.258Z,75.77
2018-11-26T02:11:07.330Z,75.39
2018-11-26T02:13:36.817Z,75.50
2018-11-26T02:16:06.179Z,75.42
2018-11-26T02:18:35.562Z,75.41
2018-11-26T02:21:04.887Z,75.45
2018-11-26T02:23:34.171Z,75.34
2018-11-26T02:26:03.481Z,75.14
2018-11-26T02:28:32.771Z,74.89
2018-11-26T02:31:02.097Z,74.76
2018-11-26T02:33:31.401Z,74.84
2018-11-26T02:36:00.694Z,74.91
2018-11-26T02:38:30.018Z,74.71
2018-11-26T02:40:59.318Z,74.71
2018-11-26T02:43:28.597Z,74.74
2018-11-26T02:45:57.892Z,74.74
2018-11-26T02:48:27.223Z,74.90
2018-11-26T02:50:56.504Z,75.10
2018-11-26T02:53:25.840Z,75.21
2018-11-26T02:55:55.135Z,75.23
2018-11-26T02:58:24.497Z,75.57
2018-11-26T03:00:53.839Z,75.32
2018-11-26T03:03:23.139Z,75.22
2018-11-26T03:05:52.457Z,75.21
2018-11-26T03:08:21.758Z,75.35
2018-11-26T03:10:51.061Z,75.32
2018-11-26T03:13:20.359Z,75.38
2018-11-26T03:15:49.653Z,75.63
2018-11-26T03:18:18.986Z,75.97
2018-11-26T03:20:48.298Z,76.11
2018-11-26T03:23:17.613Z,76.13
2018-11-26T03:25:46.925Z,76.00
2018-11-26T03:28:16.277Z,75.73
2018-11-26T03:30:45.598Z,75.91
2018-11-26T03:33:14.906Z,76.14
2018-11-26T03:35:44.238Z,76.01
2018-11-26T03:38:34.429Z,75.97
2018-11-26T03:41:03.767Z,75.99
2018-11-26T03:43:33.081Z,76.21
2018-11-26T03:46:02.392Z,76.37
2018-11-26T03:48:31.803Z,76.63
2018-11-26T03:51:01.118Z,76.82
2018-11-26T03:53:42.510Z,76.74
2018-11-26T03:56:00.788Z,76.79
2018-11-26T03:58:30.100Z,76.84
2018-11-26T04:00:59.482Z,76.92
2018-11-26T04:03:28.803Z,76.66
2018-11-26T04:05:58.144Z,76.53
2018-11-26T04:08:27.451Z,76.57
2018-11-26T04:10:56.769Z,76.76
2018-11-26T04:13:26.114Z,76.75
2018-11-26T04:15:55.426Z,76.94
2018-11-26T04:18:24.755Z,76.92
2018-11-26T04:20:54.061Z,76.97
2018-11-26T04:23:23.390Z,76.91
2018-11-26T04:25:52.680Z,76.71
2018-11-26T04:28:22.004Z,76.69
2018-11-26T04:30:51.289Z,76.68
2018-11-26T04:33:20.616Z,76.62
2018-11-26T04:35:49.914Z,76.65
2018-11-26T04:38:19.228Z,76.50
2018-11-26T04:40:48.510Z,76.52
2018-11-26T04:43:17.825Z,76.58
2018-11-26T04:45:47.139Z,76.76
2018-11-26T04:48:16.475Z,76.70
2018-11-26T04:50:45.787Z,76.95
2018-11-26T04:53:15.132Z,77.11
2018-11-26T04:55:44.397Z,77.18
2018-11-26T04:58:13.715Z,77.45
2018-11-26T05:00:43.022Z,77.71
2018-11-26T05:03:12.381Z,77.88
2018-11-26T05:05:41.704Z,77.98
2018-11-26T05:08:11.020Z,78.00
2018-11-26T05:10:40.321Z,78.04
2018-11-26T05:13:09.654Z,78.11
2018-11-26T05:15:38.940Z,78.04
2018-11-26T05:18:08.236Z,78.04
2018-11-26T05:20:37.557Z,78.40
2018-11-26T05:23:06.898Z,78.59
2018-11-26T05:25:36.214Z,78.52
2018-11-26T05:28:05.814Z,78.63
2018-11-26T05:30:35.161Z,78.72
2018-11-26T05:33:04.480Z,78.69
2018-11-26T05:35:33.785Z,78.59
2018-11-26T05:38:03.095Z,78.53
2018-11-26T05:40:32.416Z,78.52
2018-11-26T05:43:01.702Z,78.48
2018-11-26T05:45:30.994Z,78.55
2018-11-26T05:48:00.266Z,78.51
2018-11-26T05:50:29.575Z,78.60
2018-11-26T05:52:58.932Z,78.66
2018-11-26T05:55:28.265Z,78.71
2018-11-26T05:57:57.579Z,78.76
2018-11-26T06:03:04.557Z,79.04
2018-11-26T06:05:33.904Z,79.09
2018-11-26T06:08:03.270Z,79.21
2018-11-26T06:10:32.632Z,79.29
2018-11-26T06:13:03.067Z,79.50
2018-11-26T06:15:32.117Z,79.57
2018-11-26T06:18:01.401Z,79.60
2018-11-26T06:20:30.703Z,79.63
2018-11-26T06:23:00.033Z,79.71
2018-11-26T06:25:29.350Z,79.67
2018-11-26T06:27:58.645Z,79.73
2018-11-26T06:30:31.403Z,79.95
2018-11-26T06:33:00.728Z,80.10
2018-11-26T06:35:30.015Z,80.24
2018-11-26T06:37:59.280Z,80.42
2018-11-26T06:40:28.574Z,80.38
2018-11-26T06:42:57.852Z,80.48
2018-11-26T06:45:27.155Z,81.63
2018-11-26T06:47:56.479Z,83.37
2018-11-26T06:50:28.867Z,81.94
2018-11-26T06:52:58.277Z,81.40
2018-11-26T06:55:27.645Z,80.94
2018-11-26T06:57:56.935Z,80.69
2018-11-26T07:00:26.314Z,80.45
2018-11-26T07:02:55.751Z,80.30
2018-11-26T07:05:25.029Z,80.02
2018-11-26T07:07:54.334Z,80.14
2018-11-26T07:10:23.616Z,80.30
2018-11-26T07:12:53.032Z,80.40
2018-11-26T07:15:22.964Z,80.56
2018-11-26T07:17:52.490Z,80.73
2018-11-26T07:20:22.526Z,80.42
2018-11-26T07:22:51.818Z,80.42
2018-11-26T07:25:21.981Z,80.33
2018-11-26T07:27:52.793Z,80.39
2018-11-26T07:30:23.536Z,80.17
2018-11-26T07:32:52.819Z,80.10
2018-11-26T07:35:22.119Z,80.08
2018-11-26T07:37:51.393Z,79.86
2018-11-26T07:40:39.725Z,79.77
2018-11-26T07:43:13.372Z,79.69
2018-11-26T07:45:43.848Z,79.63
2018-11-26T07:48:13.701Z,79.83
2018-11-26T07:50:43.003Z,79.79
2018-11-26T07:53:12.874Z,79.92
2018-11-26T07:55:42.366Z,79.99
2018-11-26T07:58:11.657Z,80.01
2018-11-26T08:00:40.925Z,80.08
2018-11-26T08:03:12.465Z,79.91
2018-11-26T08:05:41.749Z,79.93
2018-11-26T08:08:11.081Z,79.75
2018-11-26T08:10:40.360Z,79.73
2018-11-26T08:13:09.659Z,79.72
2018-11-26T08:15:38.936Z,79.72
2018-11-26T08:18:08.256Z,79.46
2018-11-26T08:20:37.572Z,79.58
2018-11-26T08:23:07.347Z,79.73
2018-11-26T08:25:36.650Z,79.56
2018-11-26T08:28:06.189Z,79.51
2018-11-26T08:30:35.466Z,79.37
2018-11-26T08:33:04.769Z,79.37
2018-11-26T08:35:34.145Z,79.45
2018-11-26T08:38:22.157Z,79.28
2018-11-26T08:41:10.161Z,79.18
2018-11-26T08:43:58.187Z,79.09
2018-11-26T08:46:46.547Z,79.39
2018-11-26T08:49:34.575Z,79.07
2018-11-26T08:52:03.874Z,78.86
2018-11-26T08:54:33.164Z,79.06
2018-11-26T08:57:02.435Z,79.16
2018-11-26T08:59:31.720Z,78.93
2018-11-26T09:02:01.012Z,78.78
2018-11-26T09:04:49.013Z,78.56
2018-11-26T09:07:18.296Z,78.54
2018-11-26T09:09:47.597Z,78.12
2018-11-26T09:12:16.899Z,78.18
2018-11-26T09:14:46.187Z,77.99
2018-11-26T09:17:15.455Z,77.86
2018-11-26T09:19:44.734Z,78.03
2018-11-26T09:22:14.012Z,77.91
2018-11-26T09:24:43.295Z,77.44
2018-11-26T09:27:12.566Z,77.67
2018-11-26T09:29:41.858Z,77.68
2018-11-26T09:32:11.154Z,77.67
2018-11-26T09:34:40.508Z,77.41
2018-11-26T09:37:09.793Z,77.43
2018-11-26T09:39:39.082Z,77.56
2018-11-26T09:42:08.360Z,77.53
2018-11-26T09:44:37.653Z,77.39
2018-11-26T09:47:06.918Z,77.27
2018-11-26T09:49:36.204Z,77.39
2018-11-26T09:52:05.882Z,77.46
2018-11-26T09:54:35.244Z,77.43
2018-11-26T09:57:04.514Z,77.15
2018-11-26T09:59:33.802Z,77.25
2018-11-26T10:02:03.100Z,77.07
2018-11-26T10:04:32.412Z,76.74
2018-11-26T10:07:01.748Z,76.79
2018-11-26T10:09:31.057Z,76.31
2018-11-26T10:12:00.363Z,76.25
2018-11-26T10:14:29.644Z,76.41
2018-11-26T10:16:58.963Z,75.63
2018-11-26T10:19:28.597Z,75.33
2018-11-26T10:21:58.452Z,75.30
2018-11-26T10:24:27.754Z,74.85
2018-11-26T10:26:57.043Z,74.47
2018-11-26T10:29:26.332Z,74.44
2018-11-26T10:31:55.615Z,74.21
2018-11-26T10:34:24.878Z,73.96
2018-11-26T10:36:54.178Z,74.06
2018-11-26T10:39:23.459Z,73.56
2018-11-26T10:41:52.749Z,73.22
2018-11-26T10:44:22.016Z,72.32
2018-11-26T10:46:51.382Z,72.51
2018-11-26T10:49:20.685Z,72.32
2018-11-26T10:51:50.009Z,71.78
2018-11-26T10:54:19.282Z,71.89
2018-11-26T10:56:48.591Z,71.35
2018-11-26T10:59:17.858Z,71.94
2018-11-26T11:04:23.824Z,70.44
2018-11-26T11:06:55.799Z,71.10
2018-11-26T11:09:23.310Z,70.53
2018-11-26T11:11:52.593Z,70.00
2018-11-26T11:14:21.866Z,69.93
2018-11-26T11:16:51.157Z,69.54
2018-11-26T11:19:20.427Z,69.21
2018-11-26T11:21:49.704Z,68.76
2018-11-26T11:24:18.973Z,69.08
2018-11-26T11:26:48.258Z,68.24
2018-11-26T11:29:25.276Z,67.81
2018-11-26T11:31:54.533Z,67.68
2018-11-26T11:34:23.805Z,67.58
2018-11-26T11:36:53.096Z,64.99
2018-11-26T11:39:22.397Z,64.31
2018-11-26T11:41:51.692Z,64.97
2018-11-26T11:44:39.691Z,63.75
2018-11-26T11:47:09.001Z,63.24
2018-11-26T11:49:38.297Z,63.32
2018-11-26T11:52:07.604Z,62.78
2018-11-26T11:54:36.912Z,63.19
2018-11-26T11:57:06.239Z,61.90
2018-11-26T11:59:35.594Z,61.08
2018-11-26T12:02:04.914Z,58.93
2018-11-26T12:04:34.370Z,59.49
2018-11-26T12:07:03.713Z,59.05
2018-11-26T12:09:33.136Z,57.79
2018-11-26T12:12:02.433Z,57.25
2018-11-26T12:14:31.801Z,58.08
2018-11-26T12:17:01.096Z,57.87
2018-11-26T12:19:30.422Z,56.98
2018-11-26T12:21:59.723Z,57.85
2018-11-26T12:24:28.996Z,56.73
2018-11-26T12:26:58.309Z,56.40
2018-11-26T12:29:27.590Z,56.03
2018-11-26T12:31:56.896Z,56.29
2018-11-26T12:34:26.165Z,56.31
2018-11-26T12:36:57.820Z,56.63
2018-11-26T12:39:25.665Z,55.88
2018-11-26T12:41:54.952Z,55.86
2018-11-26T12:44:24.231Z,56.15
2018-11-26T12:46:53.528Z,56.80
2018-11-26T12:49:22.818Z,56.51
2018-11-26T12:51:52.094Z,56.61
2018-11-26T12:54:21.378Z,56.47
2018-11-26T12:56:50.671Z,56.62
2018-11-26T12:59:19.967Z,56.53
2018-11-26T13:01:49.252Z,55.56
2018-11-26T13:04:18.571Z,56.55
2018-11-26T13:06:47.849Z,56.30
2018-11-26T13:09:17.134Z,56.34
2018-11-26T13:11:46.420Z,56.44
2018-11-26T13:14:15.711Z,56.53
2018-11-26T13:16:45.055Z,56.58
2018-11-26T13:19:14.333Z,56.83
2018-11-26T13:21:44.010Z,56.50
2018-11-26T13:24:13.293Z,56.39
2018-11-26T13:26:42.577Z,56.75
2018-11-26T13:29:11.880Z,56.61
2018-11-26T13:31:41.264Z,56.87
2018-11-26T13:34:10.546Z,57.18
2018-11-26T13:36:39.832Z,57.23
2018-11-26T13:39:09.972Z,57.41
2018-11-26T13:41:39.306Z,57.39
2018-11-26T13:44:08.581Z,57.63
2018-11-26T13:46:37.849Z,57.94
2018-11-26T13:49:07.169Z,58.01
2018-11-26T13:51:36.461Z,57.77
2018-11-26T13:54:05.844Z,57.66
2018-11-26T13:56:35.123Z,57.78
2018-11-26T13:59:04.420Z,57.89
2018-11-26T14:01:33.694Z,58.20
2018-11-26T14:04:03.014Z,58.36
2018-11-26T14:06:32.290Z,58.74
2018-11-26T14:09:01.601Z,58.70
2018-11-26T14:11:30.911Z,58.96
2018-11-26T14:14:00.262Z,58.95
2018-11-26T14:16:29.538Z,59.00
2018-11-26T14:18:58.859Z,59.04
2018-11-26T14:21:28.133Z,59.14
2018-11-26T14:23:57.433Z,59.22
2018-11-26T14:26:26.789Z,59.29
2018-11-26T14:28:56.081Z,59.33
2018-11-26T14:31:25.370Z,59.26
2018-11-26T14:33:54.666Z,59.25
2018-11-26T14:36:23.943Z,59.31
2018-11-26T14:38:53.228Z,59.27
2018-11-26T14:41:22.556Z,59.37
2018-11-26T14:43:51.840Z,59.47
2018-11-26T14:46:21.125Z,59.54
2018-11-26T14:48:50.411Z,59.30
2018-11-26T14:51:19.688Z,59.38
2018-11-26T14:53:49.005Z,59.21
2018-11-26T14:56:18.334Z,59.42
2018-11-26T14:58:47.608Z,59.41
2018-11-26T15:01:16.913Z,59.62
2018-11-26T15:09:10.385Z,79.32
2018-11-26T15:11:40.259Z,83.49
2018-11-26T15:14:09.539Z,71.11
2018-11-26T15:16:38.834Z,63.25
2018-11-26T15:19:08.104Z,62.26
2018-11-26T15:21:37.386Z,61.50
2018-11-26T15:24:06.758Z,61.42
2018-11-26T15:26:36.051Z,61.22
2018-11-26T15:29:05.498Z,61.44
2018-11-26T15:31:34.795Z,61.57
2018-11-26T15:34:04.098Z,61.58
2018-11-26T15:36:33.386Z,61.52
2018-11-26T15:39:02.684Z,61.35
2018-11-26T15:41:31.983Z,61.77
2018-11-26T15:44:01.253Z,61.84
2018-11-26T15:46:30.528Z,61.92
2018-11-26T15:48:59.792Z,61.90
2018-11-26T15:51:29.106Z,62.04
2018-11-26T15:53:58.374Z,62.19
2018-11-26T15:56:27.662Z,62.33
2018-11-26T15:58:56.928Z,61.93
2018-11-26T16:01:26.210Z,62.18
2018-11-26T16:03:55.485Z,62.16
2018-11-26T16:06:24.786Z,62.03
2018-11-26T16:08:54.043Z,62.22
2018-11-26T16:11:23.364Z,62.57
2018-11-26T16:13:52.641Z,62.52
2018-11-26T16:16:22.062Z,62.68
2018-11-26T16:18:51.399Z,62.58
2018-11-26T16:21:20.719Z,62.68
2018-11-26T16:23:49.994Z,62.60
2018-11-26T16:26:19.274Z,62.66
2018-11-26T16:28:48.544Z,62.58
2018-11-26T16:31:17.843Z,62.59
2018-11-26T16:33:47.110Z,62.60
2018-11-26T16:36:16.385Z,62.65
2018-11-26T16:38:45.668Z,62.44
2018-11-26T16:41:14.985Z,62.60
2018-11-26T16:43:44.277Z,62.56
2018-11-26T16:46:13.547Z,62.62
2018-11-26T16:48:42.861Z,62.71
2018-11-26T16:51:12.124Z,62.71
2018-11-26T16:53:41.447Z,62.79
2018-11-26T16:56:10.710Z,62.79
2018-11-26T16:58:40.008Z,62.73
2018-11-26T17:01:09.269Z,62.95
2018-11-26T17:03:38.547Z,62.99
2018-11-26T17:06:07.864Z,63.00
2018-11-26T17:08:37.151Z,63.05
2018-11-26T17:11:06.429Z,63.05
2018-11-26T17:13:35.722Z,63.08
2018-11-26T17:16:04.998Z,63.27
2018-11-26T17:18:34.298Z,63.51
2018-11-26T17:21:03.617Z,63.65
2018-11-26T17:23:32.901Z,63.94
2018-11-26T17:26:02.167Z,64.05
2018-11-26T17:28:31.531Z,64.06
2018-11-26T17:31:00.803Z,64.14
2018-11-26T17:33:30.155Z,64.19
2018-11-26T17:35:59.449Z,64.37
2018-11-26T17:38:28.787Z,64.41
2018-11-26T17:40:58.070Z,64.63
2018-11-26T17:43:27.350Z,64.62
2018-11-26T17:45:56.643Z,64.66
2018-11-26T17:48:25.972Z,64.71
2018-11-26T17:50:55.267Z,64.86
2018-11-26T17:53:24.552Z,64.88
2018-11-26T17:55:55.120Z,65.01
2018-11-26T17:58:25.704Z,65.09
2018-11-26T18:01:33.095Z,65.31
2018-11-26T18:04:02.389Z,65.21
2018-11-26T18:06:31.784Z,65.17
2018-11-26T18:09:01.168Z,64.89
2018-11-26T18:11:30.470Z,65.05
2018-11-26T18:13:59.761Z,65.04
2018-11-26T18:16:29.086Z,64.88
2018-11-26T18:18:58.385Z,64.75
2018-11-26T18:21:27.706Z,64.79
2018-11-26T18:23:57.085Z,64.52
2018-11-26T18:26:26.517Z,64.26
2018-11-26T18:28:55.860Z,64.04
2018-11-26T18:31:25.161Z,62.82
2018-11-26T18:33:54.442Z,63.09
2018-11-26T18:36:23.764Z,62.27
2018-11-26T18:38:53.057Z,62.30
2018-11-26T18:41:22.404Z,62.57
2018-11-26T18:43:51.703Z,62.47
2018-11-26T18:46:21.019Z,62.39
2018-11-26T18:48:50.292Z,61.96
2018-11-26T18:51:19.625Z,61.99
2018-11-26T18:53:48.914Z,62.14
2018-11-26T18:56:18.209Z,62.24
2018-11-26T18:58:47.520Z,62.20
2018-11-26T19:01:16.802Z,62.04
2018-11-26T19:03:46.076Z,61.75
2018-11-26T19:06:15.358Z,62.20
2018-11-26T19:08:44.955Z,62.02
2018-11-26T19:11:16.030Z,62.10
2018-11-26T19:14:08.337Z,62.11
2018-11-26T19:16:40.125Z,61.75
2018-11-26T19:19:09.396Z,61.73
2018-11-26T19:21:38.687Z,61.83
2018-11-26T19:24:07.977Z,61.30
2018-11-26T19:26:37.259Z,61.51
2018-11-26T19:29:06.912Z,61.76
2018-11-26T19:31:36.236Z,61.71
2018-11-26T19:34:05.546Z,61.63
2018-11-26T19:36:34.807Z,61.73
2018-11-26T19:39:23.687Z,61.73
2018-11-26T19:41:52.973Z,61.86
2018-11-26T19:44:22.244Z,62.00
2018-11-26T19:46:51.551Z,62.17
2018-11-26T19:49:20.860Z,62.01
2018-11-26T19:51:50.118Z,62.15
2018-11-26T19:54:19.410Z,62.11
2018-11-26T19:56:48.671Z,61.96
2018-11-26T19:59:17.949Z,62.07
2018-11-26T20:01:47.221Z,62.05
2018-11-26T20:04:37.459Z,62.19
2018-11-26T20:07:07.358Z,62.17
2018-11-26T20:09:36.718Z,62.02
2018-11-26T20:12:06.401Z,61.93
2018-11-26T20:14:35.713Z,62.00
2018-11-26T20:17:04.981Z,62.03
2018-11-26T20:19:34.287Z,61.93
2018-11-26T20:22:03.576Z,61.87
2018-11-26T20:24:32.854Z,61.83
2018-11-26T20:27:02.109Z,61.78
2018-11-26T20:29:31.406Z,61.91
2018-11-26T20:32:00.680Z,61.93
2018-11-26T20:34:29.961Z,62.12
2018-11-26T20:39:49.731Z,62.36
2018-11-26T20:42:19.164Z,62.55
2018-11-26T20:44:48.464Z,62.75
2018-11-26T20:47:17.745Z,62.83
2018-11-26T20:49:47.029Z,62.98
2018-11-26T20:52:16.330Z,62.95
2018-11-26T20:54:45.612Z,63.09
2018-11-26T20:57:14.895Z,63.30
2018-11-26T20:59:44.409Z,63.73
2018-11-26T21:02:13.677Z,63.71
2018-11-26T21:04:43.008Z,63.73
2018-11-26T21:07:12.354Z,63.74
2018-11-26T21:10:01.466Z,63.80
2018-11-26T21:12:30.734Z,63.85
2018-11-26T21:15:00.013Z,63.88
2018-11-26T21:17:29.279Z,63.97
2018-11-26T21:19:58.576Z,64.04
2018-11-26T21:22:27.848Z,64.04
2018-11-26T21:24:57.137Z,64.11
2018-11-26T21:27:26.422Z,64.21
2018-11-26T21:32:32.069Z,64.37
2018-11-26T21:35:01.957Z,64.43
2018-11-26T21:37:32.169Z,64.51
2018-11-26T21:40:01.454Z,64.59
2018-11-26T21:42:31.072Z,64.71
2018-11-26T21:45:00.434Z,64.81
2018-11-26T21:47:29.649Z,64.98
2018-11-26T21:49:59.263Z,65.01
2018-11-26T21:52:28.539Z,65.07
2018-11-26T21:54:57.840Z,65.26
2018-11-26T21:57:29.913Z,65.26
2018-11-26T21:59:59.194Z,65.52
2018-11-26T22:02:28.538Z,65.59
2018-11-26T22:04:58.304Z,65.66
2018-11-26T22:07:27.598Z,65.80
2018-11-26T22:09:56.899Z,65.99
2018-11-26T22:12:26.253Z,66.11
2018-11-26T22:14:55.549Z,66.19
2018-11-26T22:17:25.120Z,66.16
2018-11-26T22:20:14.007Z,66.24
2018-11-26T22:22:43.289Z,66.33
2018-11-26T22:25:13.048Z,66.48
2018-11-26T22:27:42.547Z,66.59
2018-11-26T22:30:31.827Z,66.76
2018-11-26T22:33:01.127Z,66.83
2018-11-26T22:35:30.424Z,66.88
2018-11-26T22:37:59.831Z,67.02
2018-11-26T22:40:29.138Z,67.07
2018-11-26T22:42:58.512Z,67.11
2018-11-26T22:45:47.607Z,67.20
2018-11-26T22:48:17.063Z,67.35
2018-11-26T22:50:46.741Z,67.47
2018-11-26T22:53:16.022Z,67.60
2018-11-26T22:55:45.339Z,67.75
2018-11-26T22:58:15.623Z,67.69
2018-11-26T23:01:04.125Z,67.76
2018-11-26T23:03:33.510Z,67.98
2018-11-26T23:06:02.815Z,68.02
2018-11-26T23:08:32.226Z,68.07
2018-11-26T23:11:01.571Z,68.15
2018-11-26T23:13:30.808Z,68.18
2018-11-26T23:16:00.259Z,68.37
2018-11-26T23:18:29.548Z,68.50
2018-11-26T23:20:58.866Z,68.52
2018-11-26T23:23:28.301Z,68.55
2018-11-26T23:25:57.600Z,68.60
2018-11-26T23:28:26.968Z,68.66
2018-11-26T23:30:56.275Z,68.80
2018-11-26T23:33:25.552Z,68.91
2018-11-26T23:35:54.844Z,68.90
2018-11-26T23:38:24.146Z,68.83
2018-11-26T23:40:53.416Z,68.77
2018-11-26T23:43:22.722Z,68.83
2018-11-26T23:45:52.000Z,68.83
2018-11-26T23:48:21.298Z,68.85
2018-11-26T23:50:50.574Z,69.08
2018-11-26T23:53:19.858Z,69.30
2018-11-26T23:55:49.136Z,69.26
2018-11-26T23:58:18.446Z,69.22
